sensor_id;sensor_type;location;lat;lon;timestamp;pressure;altitude;pressure_sealevel;temperature;humidity
8398;BME280;4236;54.504;9.588;2023-02-11T00:02:05;102559.66;;;6.05;100.00
8398;BME280;4236;54.504;9.588;2023-02-11T00:04:33;102542.66;;;6.08;100.00
8398;BME280;4236;54.504;9.588;2023-02-11T00:07:01;102538.22;;;6.08;100.00
8398;BME280;4236;54.504;9.588;2023-02-11T00:09:28;102540.72;;;6.10;100.00
8398;BME280;4236;54.504;9.588;2023-02-11T00:11:57;102537.81;;;6.13;100.00
8398;BME280;4236;54.504;9.588;2023-02-11T00:14:25;102534.47;;;6.11;100.00
8398;BME280;4236;54.504;9.588;2023-02-11T00:16:54;102529.78;;;6.15;100.00
8398;BME280;4236;54.504;9.588;2023-02-11T00:19:21;102521.59;;;6.18;100.00
8398;BME280;4236;54.504;9.588;2023-02-11T00:21:49;102513.38;;;6.21;100.00
8398;BME280;4236;54.504;9.588;2023-02-11T00:24:17;102506.63;;;6.17;100.00
8398;BME280;4236;54.504;9.588;2023-02-11T00:26:45;102521.34;;;6.21;100.00
8398;BME280;4236;54.504;9.588;2023-02-11T00:29:12;102518.69;;;6.21;100.00
8398;BME280;4236;54.504;9.588;2023-02-11T00:31:40;102513.97;;;6.24;100.00
8398;BME280;4236;54.504;9.588;2023-02-11T00:34:09;102517.44;;;6.25;100.00
8398;BME280;4236;54.504;9.588;2023-02-11T00:36:37;102528.63;;;6.28;100.00
8398;BME280;4236;54.504;9.588;2023-02-11T00:39:05;102516.69;;;6.34;100.00
8398;BME280;4236;54.504;9.588;2023-02-11T00:41:33;102526.19;;;6.36;100.00
8398;BME280;4236;54.504;9.588;2023-02-11T00:44:01;102522.47;;;6.39;100.00
8398;BME280;4236;54.504;9.588;2023-02-11T00:46:29;102510.03;;;6.39;100.00
8398;BME280;4236;54.504;9.588;2023-02-11T00:48:57;102509.78;;;6.42;100.00
8398;BME280;4236;54.504;9.588;2023-02-11T00:51:27;102510.63;;;6.43;100.00
8398;BME280;4236;54.504;9.588;2023-02-11T00:53:54;102506.88;;;6.45;100.00
8398;BME280;4236;54.504;9.588;2023-02-11T00:56:22;102501.47;;;6.47;100.00
8398;BME280;4236;54.504;9.588;2023-02-11T00:58:50;102509.28;;;6.48;100.00
8398;BME280;4236;54.504;9.588;2023-02-11T01:01:19;102500.13;;;6.52;100.00
8398;BME280;4236;54.504;9.588;2023-02-11T01:03:47;102494.72;;;6.54;100.00
8398;BME280;4236;54.504;9.588;2023-02-11T01:06:15;102512.28;;;6.55;100.00
8398;BME280;4236;54.504;9.588;2023-02-11T01:08:44;102517.47;;;6.56;100.00
8398;BME280;4236;54.504;9.588;2023-02-11T01:11:14;102505.75;;;6.59;100.00
8398;BME280;4236;54.504;9.588;2023-02-11T01:13:42;102515.25;;;6.61;100.00
8398;BME280;4236;54.504;9.588;2023-02-11T01:16:11;102526.31;;;6.66;100.00
8398;BME280;4236;54.504;9.588;2023-02-11T01:18:40;102530.75;;;6.66;100.00
8398;BME280;4236;54.504;9.588;2023-02-11T01:21:09;102521.00;;;6.66;100.00
8398;BME280;4236;54.504;9.588;2023-02-11T01:23:37;102519.78;;;6.71;100.00
8398;BME280;4236;54.504;9.588;2023-02-11T01:26:06;102514.50;;;6.71;100.00
8398;BME280;4236;54.504;9.588;2023-02-11T01:28:34;102519.78;;;6.71;100.00
8398;BME280;4236;54.504;9.588;2023-02-11T01:31:02;102526.66;;;6.73;100.00
8398;BME280;4236;54.504;9.588;2023-02-11T01:33:30;102517.84;;;6.73;100.00
8398;BME280;4236;54.504;9.588;2023-02-11T01:36:02;102528.34;;;6.74;100.00
8398;BME280;4236;54.504;9.588;2023-02-11T01:38:30;102515.78;;;6.76;100.00
8398;BME280;4236;54.504;9.588;2023-02-11T01:41:01;102511.31;;;6.77;100.00
8398;BME280;4236;54.504;9.588;2023-02-11T01:43:33;102514.56;;;6.80;100.00
8398;BME280;4236;54.504;9.588;2023-02-11T01:46:13;102523.13;;;6.84;100.00
8398;BME280;4236;54.504;9.588;2023-02-11T01:48:43;102528.41;;;6.84;100.00
8398;BME280;4236;54.504;9.588;2023-02-11T01:51:15;102527.44;;;6.85;100.00
8398;BME280;4236;54.504;9.588;2023-02-11T01:53:45;102516.69;;;6.86;100.00
8398;BME280;4236;54.504;9.588;2023-02-11T01:56:46;102515.59;;;6.89;100.00
8398;BME280;4236;54.504;9.588;2023-02-11T01:59:37;102521.28;;;6.84;100.00
8398;BME280;4236;54.504;9.588;2023-02-11T02:02:09;102515.44;;;6.90;100.00
8398;BME280;4236;54.504;9.588;2023-02-11T02:04:42;102504.16;;;6.88;100.00
8398;BME280;4236;54.504;9.588;2023-02-11T02:07:15;102499.53;;;6.90;100.00
8398;BME280;4236;54.504;9.588;2023-02-11T02:09:47;102498.59;;;6.91;100.00
8398;BME280;4236;54.504;9.588;2023-02-11T02:12:15;102487.00;;;6.92;100.00
8398;BME280;4236;54.504;9.588;2023-02-11T02:14:44;102491.31;;;6.93;100.00
8398;BME280;4236;54.504;9.588;2023-02-11T02:17:23;102487.88;;;6.93;100.00
8398;BME280;4236;54.504;9.588;2023-02-11T02:20:15;102480.72;;;6.93;100.00
8398;BME280;4236;54.504;9.588;2023-02-11T02:23:12;102487.88;;;6.93;100.00
8398;BME280;4236;54.504;9.588;2023-02-11T02:26:10;102480.59;;;6.95;100.00
8398;BME280;4236;54.504;9.588;2023-02-11T02:29:17;102484.81;;;6.97;100.00
8398;BME280;4236;54.504;9.588;2023-02-11T02:32:23;102478.53;;;6.98;100.00
8398;BME280;4236;54.504;9.588;2023-02-11T02:34:57;102491.91;;;6.97;100.00
8398;BME280;4236;54.504;9.588;2023-02-11T02:37:33;102475.03;;;6.98;100.00
8398;BME280;4236;54.504;9.588;2023-02-11T02:40:06;102478.66;;;6.97;100.00
8398;BME280;4236;54.504;9.588;2023-02-11T02:42:38;102481.03;;;7.00;100.00
8398;BME280;4236;54.504;9.588;2023-02-11T02:45:08;102480.19;;;6.99;100.00
8398;BME280;4236;54.504;9.588;2023-02-11T02:47:38;102473.22;;;6.98;100.00
8398;BME280;4236;54.504;9.588;2023-02-11T02:50:08;102465.97;;;7.00;100.00
8398;BME280;4236;54.504;9.588;2023-02-11T02:52:41;102465.00;;;7.01;100.00
8398;BME280;4236;54.504;9.588;2023-02-11T02:55:32;102457.16;;;7.00;100.00
8398;BME280;4236;54.504;9.588;2023-02-11T02:58:18;102463.06;;;7.03;100.00
8398;BME280;4236;54.504;9.588;2023-02-11T03:00:56;102458.59;;;7.04;100.00
8398;BME280;4236;54.504;9.588;2023-02-11T03:03:34;102453.16;;;7.05;100.00
8398;BME280;4236;54.504;9.588;2023-02-11T03:06:12;102458.59;;;7.04;100.00
8398;BME280;4236;54.504;9.588;2023-02-11T03:08:45;102470.16;;;7.03;100.00
8398;BME280;4236;54.504;9.588;2023-02-11T03:11:17;102466.66;;;7.02;100.00
8398;BME280;4236;54.504;9.588;2023-02-11T03:13:47;102486.94;;;7.03;100.00
8398;BME280;4236;54.504;9.588;2023-02-11T03:16:19;102490.44;;;7.04;100.00
8398;BME280;4236;54.504;9.588;2023-02-11T03:18:52;102490.44;;;7.04;100.00
8398;BME280;4236;54.504;9.588;2023-02-11T03:21:23;102487.88;;;7.02;100.00
8398;BME280;4236;54.504;9.588;2023-02-11T03:23:52;102487.19;;;7.00;100.00
8398;BME280;4236;54.504;9.588;2023-02-11T03:26:25;102488.88;;;7.01;100.00
8398;BME280;4236;54.504;9.588;2023-02-11T03:28:59;102487.19;;;7.00;100.00
8398;BME280;4236;54.504;9.588;2023-02-11T03:31:34;102489.59;;;7.03;100.00
8398;BME280;4236;54.504;9.588;2023-02-11T03:34:08;102485.38;;;7.01;100.00
8398;BME280;4236;54.504;9.588;2023-02-11T03:36:40;102484.53;;;7.00;100.00
8398;BME280;4236;54.504;9.588;2023-02-11T03:39:15;102480.19;;;6.99;100.00
8398;BME280;4236;54.504;9.588;2023-02-11T03:41:45;102475.47;;;7.03;100.00
8398;BME280;4236;54.504;9.588;2023-02-11T03:44:16;102472.25;;;6.99;100.00
8398;BME280;4236;54.504;9.588;2023-02-11T03:46:48;102460.81;;;6.99;100.00
8398;BME280;4236;54.504;9.588;2023-02-11T03:49:20;102472.13;;;7.01;100.00
8398;BME280;4236;54.504;9.588;2023-02-11T03:51:50;102467.09;;;6.98;100.00
8398;BME280;4236;54.504;9.588;2023-02-11T03:54:23;102468.19;;;6.95;100.00
8398;BME280;4236;54.504;9.588;2023-02-11T03:56:54;102452.13;;;6.97;100.00
8398;BME280;4236;54.504;9.588;2023-02-11T03:59:23;102458.16;;;6.99;100.00
8398;BME280;4236;54.504;9.588;2023-02-11T04:01:50;102450.59;;;6.94;100.00
8398;BME280;4236;54.504;9.588;2023-02-11T04:04:20;102439.00;;;6.95;100.00
8398;BME280;4236;54.504;9.588;2023-02-11T04:06:47;102440.56;;;6.98;100.00
8398;BME280;4236;54.504;9.588;2023-02-11T04:09:16;102443.91;;;7.00;100.00
8398;BME280;4236;54.504;9.588;2023-02-11T04:11:43;102445.97;;;6.96;100.00
8398;BME280;4236;54.504;9.588;2023-02-11T04:14:11;102453.66;;;6.99;100.00
8398;BME280;4236;54.504;9.588;2023-02-11T04:16:39;102445.88;;;6.98;100.00
8398;BME280;4236;54.504;9.588;2023-02-11T04:19:06;102432.59;;;6.98;100.00
8398;BME280;4236;54.504;9.588;2023-02-11T04:21:35;102429.09;;;6.97;100.00
8398;BME280;4236;54.504;9.588;2023-02-11T04:24:03;102429.09;;;6.97;100.00
8398;BME280;4236;54.504;9.588;2023-02-11T04:26:31;102426.59;;;6.96;100.00
8398;BME280;4236;54.504;9.588;2023-02-11T04:28:59;102424.06;;;6.94;100.00
8398;BME280;4236;54.504;9.588;2023-02-11T04:31:26;102414.31;;;6.95;100.00
8398;BME280;4236;54.504;9.588;2023-02-11T04:33:55;102406.91;;;6.98;100.00
8398;BME280;4236;54.504;9.588;2023-02-11T04:36:22;102408.72;;;6.98;100.00
8398;BME280;4236;54.504;9.588;2023-02-11T04:38:51;102403.53;;;6.96;100.00
8398;BME280;4236;54.504;9.588;2023-02-11T04:41:19;102395.59;;;6.96;100.00
8398;BME280;4236;54.504;9.588;2023-02-11T04:43:47;102390.28;;;6.96;100.00
8398;BME280;4236;54.504;9.588;2023-02-11T04:46:14;102380.50;;;6.97;100.00
8398;BME280;4236;54.504;9.588;2023-02-11T04:48:42;102374.38;;;6.96;100.00
8398;BME280;4236;54.504;9.588;2023-02-11T04:51:10;102384.53;;;6.91;100.00
8398;BME280;4236;54.504;9.588;2023-02-11T04:53:37;102389.16;;;6.89;100.00
8398;BME280;4236;54.504;9.588;2023-02-11T04:56:07;102409.25;;;6.92;100.00
8398;BME280;4236;54.504;9.588;2023-02-11T04:58:34;102398.06;;;6.88;100.00
8398;BME280;4236;54.504;9.588;2023-02-11T05:01:05;102410.38;;;6.89;100.00
8398;BME280;4236;54.504;9.588;2023-02-11T05:03:34;102409.53;;;6.89;100.00
8398;BME280;4236;54.504;9.588;2023-02-11T05:06:02;102409.25;;;6.92;100.00
8398;BME280;4236;54.504;9.588;2023-02-11T05:08:30;102407.44;;;6.92;100.00
8398;BME280;4236;54.504;9.588;2023-02-11T05:10:58;102408.28;;;6.93;100.00
8398;BME280;4236;54.504;9.588;2023-02-11T05:13:29;102412.88;;;6.91;100.00
8398;BME280;4236;54.504;9.588;2023-02-11T05:15:57;102414.41;;;6.93;100.00
8398;BME280;4236;54.504;9.588;2023-02-11T05:18:24;102409.53;;;6.89;100.00
8398;BME280;4236;54.504;9.588;2023-02-11T05:20:53;102419.28;;;6.88;100.00
8398;BME280;4236;54.504;9.588;2023-02-11T05:23:20;102417.47;;;6.89;100.00
8398;BME280;4236;54.504;9.588;2023-02-11T05:25:48;102430.03;;;6.87;100.00
8398;BME280;4236;54.504;9.588;2023-02-11T05:28:16;102428.34;;;6.86;100.00
8398;BME280;4236;54.504;9.588;2023-02-11T05:30:45;102427.75;;;6.82;100.00
8398;BME280;4236;54.504;9.588;2023-02-11T05:33:13;102429.31;;;6.85;100.00
8398;BME280;4236;54.504;9.588;2023-02-11T05:35:41;102435.34;;;6.87;100.00
8398;BME280;4236;54.504;9.588;2023-02-11T05:38:08;102432.09;;;6.83;100.00
8398;BME280;4236;54.504;9.588;2023-02-11T05:40:36;102437.53;;;6.82;100.00
8398;BME280;4236;54.504;9.588;2023-02-11T05:43:03;102442.72;;;6.83;100.00
8398;BME280;4236;54.504;9.588;2023-02-11T05:45:32;102434.19;;;6.80;100.00
8398;BME280;4236;54.504;9.588;2023-02-11T05:48:01;102434.03;;;6.81;100.00
8398;BME280;4236;54.504;9.588;2023-02-11T05:50:28;102435.59;;;6.84;100.00
8398;BME280;4236;54.504;9.588;2023-02-11T05:52:56;102427.66;;;6.84;100.00
8398;BME280;4236;54.504;9.588;2023-02-11T05:55:24;102423.88;;;6.86;100.00
8398;BME280;4236;54.504;9.588;2023-02-11T05:57:51;102432.09;;;6.83;100.00
8398;BME280;4236;54.504;9.588;2023-02-11T06:00:19;102433.50;;;6.87;100.00
8398;BME280;4236;54.504;9.588;2023-02-11T06:02:47;102426.66;;;6.85;100.00
8398;BME280;4236;54.504;9.588;2023-02-11T06:05:16;102430.75;;;6.89;100.00
8398;BME280;4236;54.504;9.588;2023-02-11T06:07:44;102431.84;;;6.86;100.00
8398;BME280;4236;54.504;9.588;2023-02-11T06:10:12;102436.41;;;6.84;100.00
8398;BME280;4236;54.504;9.588;2023-02-11T06:12:39;102436.03;;;6.89;100.00
8398;BME280;4236;54.504;9.588;2023-02-11T06:15:07;102445.44;;;6.93;100.00
8398;BME280;4236;54.504;9.588;2023-02-11T06:17:35;102442.19;;;6.89;100.00
8398;BME280;4236;54.504;9.588;2023-02-11T06:20:04;102448.88;;;6.93;100.00
8398;BME280;4236;54.504;9.588;2023-02-11T06:22:33;102451.81;;;6.90;100.00
8398;BME280;4236;54.504;9.588;2023-02-11T06:25:02;102448.19;;;6.91;100.00
8398;BME280;4236;54.504;9.588;2023-02-11T06:27:29;102443.47;;;6.95;100.00
8398;BME280;4236;54.504;9.588;2023-02-11T06:29:57;102450.59;;;6.94;100.00
8398;BME280;4236;54.504;9.588;2023-02-11T06:32:25;102435.53;;;6.95;100.00
8398;BME280;4236;54.504;9.588;2023-02-11T06:35:12;102431.16;;;6.94;100.00
8398;BME280;4236;54.504;9.588;2023-02-11T06:37:41;102429.94;;;6.98;100.00
8398;BME280;4236;54.504;9.588;2023-02-11T06:40:10;102429.09;;;6.97;100.00
8398;BME280;4236;54.504;9.588;2023-02-11T06:42:38;102425.50;;;6.98;100.00
8398;BME280;4236;54.504;9.588;2023-02-11T06:45:06;102444.75;;;7.00;100.00
8398;BME280;4236;54.504;9.588;2023-02-11T06:47:36;102453.66;;;6.99;100.00
8398;BME280;4236;54.504;9.588;2023-02-11T06:50:06;102471.13;;;7.02;100.00
8398;BME280;4236;54.504;9.588;2023-02-11T06:52:34;102462.34;;;7.01;100.00
8398;BME280;4236;54.504;9.588;2023-02-11T06:55:03;102470.16;;;7.03;100.00
8398;BME280;4236;54.504;9.588;2023-02-11T06:57:31;102469.31;;;7.02;100.00
8398;BME280;4236;54.504;9.588;2023-02-11T06:59:59;102458.84;;;7.01;100.00
8398;BME280;4236;54.504;9.588;2023-02-11T07:02:27;102464.03;;;7.02;100.00
8398;BME280;4236;54.504;9.588;2023-02-11T07:04:54;102460.41;;;7.03;100.00
8398;BME280;4236;54.504;9.588;2023-02-11T07:07:22;102470.88;;;7.05;100.00
8398;BME280;4236;54.504;9.588;2023-02-11T07:09:50;102465.44;;;7.06;100.00
8398;BME280;4236;54.504;9.588;2023-02-11T07:12:19;102475.22;;;7.06;100.00
8398;BME280;4236;54.504;9.588;2023-02-11T07:14:46;102472.44;;;7.07;100.00
8398;BME280;4236;54.504;9.588;2023-02-11T07:17:14;102493.41;;;7.10;100.00
8398;BME280;4236;54.504;9.588;2023-02-11T07:19:42;102502.06;;;7.12;100.00
8398;BME280;4236;54.504;9.588;2023-02-11T07:22:10;102507.38;;;7.12;100.00
8398;BME280;4236;54.504;9.588;2023-02-11T07:24:38;102520.38;;;7.15;100.00
8398;BME280;4236;54.504;9.588;2023-02-11T07:27:05;102524.56;;;7.18;100.00
8398;BME280;4236;54.504;9.588;2023-02-11T07:29:34;102531.56;;;7.19;100.00
8398;BME280;4236;54.504;9.588;2023-02-11T07:32:02;102542.63;;;7.24;100.00
8398;BME280;4236;54.504;9.588;2023-02-11T07:34:31;102541.50;;;7.27;100.00
8398;BME280;4236;54.504;9.588;2023-02-11T07:36:58;102541.41;;;7.28;100.00
8398;BME280;4236;54.504;9.588;2023-02-11T07:39:26;102543.78;;;7.31;100.00
8398;BME280;4236;54.504;9.588;2023-02-11T07:41:54;102543.63;;;7.33;100.00
8398;BME280;4236;54.504;9.588;2023-02-11T07:44:22;102538.47;;;7.31;100.00
8398;BME280;4236;54.504;9.588;2023-02-11T07:46:51;102549.94;;;7.32;100.00
8398;BME280;4236;54.504;9.588;2023-02-11T07:49:19;102548.25;;;7.31;100.00
8398;BME280;4236;54.504;9.588;2023-02-11T07:51:47;102552.59;;;7.32;100.00
8398;BME280;4236;54.504;9.588;2023-02-11T07:54:16;102548.84;;;7.34;100.00
8398;BME280;4236;54.504;9.588;2023-02-11T07:56:44;102548.69;;;7.36;100.00
8398;BME280;4236;54.504;9.588;2023-02-11T07:59:12;102548.41;;;7.39;100.00
8398;BME280;4236;54.504;9.588;2023-02-11T08:01:40;102540.72;;;7.36;100.00
8398;BME280;4236;54.504;9.588;2023-02-11T08:04:08;102533.50;;;7.38;100.00
8398;BME280;4236;54.504;9.588;2023-02-11T08:06:40;102537.53;;;7.42;100.00
8398;BME280;4236;54.504;9.588;2023-02-11T08:09:13;102529.84;;;7.39;100.00
8398;BME280;4236;54.504;9.588;2023-02-11T08:11:41;102534.88;;;7.42;100.00
8398;BME280;4236;54.504;9.588;2023-02-11T08:14:10;102541.16;;;7.41;100.00
8398;BME280;4236;54.504;9.588;2023-02-11T08:16:38;102547.19;;;7.43;100.00
8398;BME280;4236;54.504;9.588;2023-02-11T08:19:09;102554.63;;;7.49;100.00
8398;BME280;4236;54.504;9.588;2023-02-11T08:21:38;102571.25;;;7.51;100.00
8398;BME280;4236;54.504;9.588;2023-02-11T08:24:06;102582.88;;;7.59;100.00
8398;BME280;4236;54.504;9.588;2023-02-11T08:26:34;102594.94;;;7.63;100.00
8398;BME280;4236;54.504;9.588;2023-02-11T08:29:06;102605.69;;;7.62;100.00
8398;BME280;4236;54.504;9.588;2023-02-11T08:31:36;102597.66;;;7.73;100.00
8398;BME280;4236;54.504;9.588;2023-02-11T08:34:05;102601.00;;;7.75;100.00
8398;BME280;4236;54.504;9.588;2023-02-11T08:36:35;102592.06;;;7.76;100.00
8398;BME280;4236;54.504;9.588;2023-02-11T08:39:06;102592.50;;;7.81;100.00
8398;BME280;4236;54.504;9.588;2023-02-11T08:41:45;102591.66;;;7.80;100.00
8398;BME280;4236;54.504;9.588;2023-02-11T08:44:14;102592.34;;;7.82;100.00
8398;BME280;4236;54.504;9.588;2023-02-11T08:46:42;102600.78;;;7.88;100.00
8398;BME280;4236;54.504;9.588;2023-02-11T08:49:10;102599.25;;;7.95;100.00
8398;BME280;4236;54.504;9.588;2023-02-11T08:51:39;102591.59;;;8.01;100.00
8398;BME280;4236;54.504;9.588;2023-02-11T08:54:07;102594.41;;;8.00;100.00
8398;BME280;4236;54.504;9.588;2023-02-11T08:56:35;102590.47;;;8.04;100.00
8398;BME280;4236;54.504;9.588;2023-02-11T08:59:04;102593.28;;;8.02;100.00
8398;BME280;4236;54.504;9.588;2023-02-11T09:01:32;102588.66;;;8.04;100.00
8398;BME280;4236;54.504;9.588;2023-02-11T09:04:01;102587.69;;;8.05;100.00
8398;BME280;4236;54.504;9.588;2023-02-11T09:06:30;102599.59;;;8.11;100.00
8398;BME280;4236;54.504;9.588;2023-02-11T09:08:59;102611.47;;;8.07;100.00
8398;BME280;4236;54.504;9.588;2023-02-11T09:11:29;102608.81;;;8.07;100.00
8398;BME280;4236;54.504;9.588;2023-02-11T09:13:57;102619.63;;;8.15;100.00
8398;BME280;4236;54.504;9.588;2023-02-11T09:16:27;102633.91;;;8.23;100.00
8398;BME280;4236;54.504;9.588;2023-02-11T09:18:56;102627.25;;;8.29;100.00
8398;BME280;4236;54.504;9.588;2023-02-11T09:21:24;102625.56;;;8.28;100.00
8398;BME280;4236;54.504;9.588;2023-02-11T09:23:52;102617.69;;;8.26;100.00
8398;BME280;4236;54.504;9.588;2023-02-11T09:26:23;102623.00;;;8.26;100.00
8398;BME280;4236;54.504;9.588;2023-02-11T09:28:52;102617.50;;;8.18;100.00
8398;BME280;4236;54.504;9.588;2023-02-11T09:31:21;102628.69;;;8.12;100.00
8398;BME280;4236;54.504;9.588;2023-02-11T09:33:51;102641.97;;;8.12;100.00
8398;BME280;4236;54.504;9.588;2023-02-11T09:36:21;102646.00;;;8.07;100.00
8398;BME280;4236;54.504;9.588;2023-02-11T09:38:49;102656.78;;;8.05;100.00
8398;BME280;4236;54.504;9.588;2023-02-11T09:41:36;102659.72;;;8.02;100.00
8398;BME280;4236;54.504;9.588;2023-02-11T09:44:07;102666.72;;;8.03;100.00
8398;BME280;4236;54.504;9.588;2023-02-11T09:46:40;102658.44;;;7.97;100.00
8398;BME280;4236;54.504;9.588;2023-02-11T09:49:17;102664.31;;;8.00;100.00
8398;BME280;4236;54.504;9.588;2023-02-11T09:51:51;102659.81;;;8.01;100.00
8398;BME280;4236;54.504;9.588;2023-02-11T09:54:26;102662.09;;;8.05;100.00
8398;BME280;4236;54.504;9.588;2023-02-11T09:56:57;102669.22;;;8.05;100.00
8398;BME280;4236;54.504;9.588;2023-02-11T09:59:25;102673.69;;;8.04;100.00
8398;BME280;4236;54.504;9.588;2023-02-11T10:01:56;102672.50;;;8.18;100.00
8398;BME280;4236;54.504;9.588;2023-02-11T10:04:47;102673.78;;;8.23;100.00
8398;BME280;4236;54.504;9.588;2023-02-11T10:07:27;102678.59;;;8.29;100.00
8398;BME280;4236;54.504;9.588;2023-02-11T10:10:06;102672.59;;;8.37;100.00
8398;BME280;4236;54.504;9.588;2023-02-11T10:12:50;102674.94;;;8.30;100.00
8398;BME280;4236;54.504;9.588;2023-02-11T10:15:26;102679.94;;;8.24;100.00
8398;BME280;4236;54.504;9.588;2023-02-11T10:18:06;102674.47;;;8.25;100.00
8398;BME280;4236;54.504;9.588;2023-02-11T10:20:40;102672.00;;;8.33;100.00
8398;BME280;4236;54.504;9.588;2023-02-11T10:23:16;102669.22;;;8.35;100.00
8398;BME280;4236;54.504;9.588;2023-02-11T10:25:48;102659.75;;;8.42;100.00
8398;BME280;4236;54.504;9.588;2023-02-11T10:28:21;102663.94;;;8.45;100.00
8398;BME280;4236;54.504;9.588;2023-02-11T10:30:56;102674.00;;;8.41;100.00
8398;BME280;4236;54.504;9.588;2023-02-11T10:33:28;102671.19;;;8.33;100.00
8398;BME280;4236;54.504;9.588;2023-02-11T10:35:57;102662.94;;;8.36;100.00
8398;BME280;4236;54.504;9.588;2023-02-11T10:38:26;102683.50;;;8.34;100.00
8398;BME280;4236;54.504;9.588;2023-02-11T10:40:54;102685.19;;;8.35;100.00
8398;BME280;4236;54.504;9.588;2023-02-11T10:43:25;102682.53;;;8.35;100.00
8398;BME280;4236;54.504;9.588;2023-02-11T10:45:55;102691.63;;;8.32;100.00
8398;BME280;4236;54.504;9.588;2023-02-11T10:48:41;102690.88;;;8.30;100.00
8398;BME280;4236;54.504;9.588;2023-02-11T10:51:18;102688.38;;;8.29;100.00
8398;BME280;4236;54.504;9.588;2023-02-11T10:53:48;102679.97;;;8.33;100.00
8398;BME280;4236;54.504;9.588;2023-02-11T10:56:22;102684.34;;;8.34;100.00
8398;BME280;4236;54.504;9.588;2023-02-11T10:58:58;102676.94;;;8.38;100.00
8398;BME280;4236;54.504;9.588;2023-02-11T11:01:41;102682.38;;;8.37;100.00
8398;BME280;4236;54.504;9.588;2023-02-11T11:04:33;102679.19;;;8.43;100.00
8398;BME280;4236;54.504;9.588;2023-02-11T11:07:11;102683.25;;;8.47;100.00
8398;BME280;4236;54.504;9.588;2023-02-11T11:09:44;102683.84;;;8.50;100.00
8398;BME280;4236;54.504;9.588;2023-02-11T11:12:31;102697.44;;;8.66;100.00
8398;BME280;4236;54.504;9.588;2023-02-11T11:15:13;102693.97;;;8.66;100.00
8398;BME280;4236;54.504;9.588;2023-02-11T11:17:43;102707.69;;;8.71;100.00
8398;BME280;4236;54.504;9.588;2023-02-11T11:20:19;102716.78;;;8.68;100.00
8398;BME280;4236;54.504;9.588;2023-02-11T11:22:48;102713.84;;;8.71;100.00
8398;BME280;4236;54.504;9.588;2023-02-11T11:25:22;102715.91;;;8.58;100.00
8398;BME280;4236;54.504;9.588;2023-02-11T11:27:52;102709.38;;;8.72;100.00
8398;BME280;4236;54.504;9.588;2023-02-11T11:30:24;102709.38;;;8.72;100.00
8398;BME280;4236;54.504;9.588;2023-02-11T11:32:53;102703.88;;;8.64;100.00
8398;BME280;4236;54.504;9.588;2023-02-11T11:35:26;102705.56;;;8.65;100.00
8398;BME280;4236;54.504;9.588;2023-02-11T11:37:57;102694.78;;;8.66;100.00
8398;BME280;4236;54.504;9.588;2023-02-11T11:40:29;102691.94;;;8.49;100.00
8398;BME280;4236;54.504;9.588;2023-02-11T11:43:06;102690.13;;;8.49;100.00
8398;BME280;4236;54.504;9.588;2023-02-11T11:45:35;102691.00;;;8.59;100.00
8398;BME280;4236;54.504;9.588;2023-02-11T11:48:07;102684.00;;;8.68;100.00
8398;BME280;4236;54.504;9.588;2023-02-11T11:50:41;102680.66;;;8.75;100.00
8398;BME280;4236;54.504;9.588;2023-02-11T11:53:13;102686.69;;;8.77;100.00
8398;BME280;4236;54.504;9.588;2023-02-11T11:55:44;102692.00;;;8.68;100.00
8398;BME280;4236;54.504;9.588;2023-02-11T11:58:16;102690.44;;;8.65;100.00
8398;BME280;4236;54.504;9.588;2023-02-11T12:00:52;102700.69;;;8.79;100.00
8398;BME280;4236;54.504;9.588;2023-02-11T12:03:56;102699.00;;;8.78;100.00
8398;BME280;4236;54.504;9.588;2023-02-11T12:06:37;102700.13;;;8.76;100.00
8398;BME280;4236;54.504;9.588;2023-02-11T12:09:14;102694.50;;;8.69;100.00
8398;BME280;4236;54.504;9.588;2023-02-11T12:12:07;102692.56;;;8.71;100.00
8398;BME280;4236;54.504;9.588;2023-02-11T12:14:42;102686.66;;;8.68;100.00
8398;BME280;4236;54.504;9.588;2023-02-11T12:17:25;102693.81;;;8.77;100.00
8398;BME280;4236;54.504;9.588;2023-02-11T12:20:23;102691.00;;;8.78;100.00
8398;BME280;4236;54.504;9.588;2023-02-11T12:23:04;102686.25;;;8.72;100.00
8398;BME280;4236;54.504;9.588;2023-02-11T12:25:41;102688.91;;;8.72;100.00
8398;BME280;4236;54.504;9.588;2023-02-11T12:28:22;102702.66;;;8.77;100.00
8398;BME280;4236;54.504;9.588;2023-02-11T12:31:04;102695.78;;;8.65;100.00
8398;BME280;4236;54.504;9.588;2023-02-11T12:33:55;102691.69;;;8.61;100.00
8398;BME280;4236;54.504;9.588;2023-02-11T12:36:50;102683.03;;;8.69;100.00
8398;BME280;4236;54.504;9.588;2023-02-11T12:39:31;102694.22;;;8.72;100.00
8398;BME280;4236;54.504;9.588;2023-02-11T12:42:13;102689.44;;;8.57;100.00
8398;BME280;4236;54.504;9.588;2023-02-11T12:45:16;102683.59;;;8.82;100.00
8398;BME280;4236;54.504;9.588;2023-02-11T12:47:56;102689.19;;;8.79;100.00
8398;BME280;4236;54.504;9.588;2023-02-11T12:50:36;102693.00;;;8.86;100.00
8398;BME280;4236;54.504;9.588;2023-02-11T12:53:29;102704.50;;;8.86;100.00
8398;BME280;4236;54.504;9.588;2023-02-11T12:56:04;102707.25;;;8.75;100.00
8398;BME280;4236;54.504;9.588;2023-02-11T12:58:34;102715.22;;;8.66;100.00
8398;BME280;4236;54.504;9.588;2023-02-11T13:01:18;102730.09;;;8.78;100.00
8398;BME280;4236;54.504;9.588;2023-02-11T13:03:50;102733.84;;;8.75;100.00
8398;BME280;4236;54.504;9.588;2023-02-11T13:06:26;102733.94;;;8.55;100.00
8398;BME280;4236;54.504;9.588;2023-02-11T13:08:59;102723.91;;;8.68;100.00
8398;BME280;4236;54.504;9.588;2023-02-11T13:11:32;102727.41;;;8.68;100.00
8398;BME280;4236;54.504;9.588;2023-02-11T13:14:08;102727.22;;;8.51;100.00
8398;BME280;4236;54.504;9.588;2023-02-11T13:16:40;102716.53;;;8.41;100.00
8398;BME280;4236;54.504;9.588;2023-02-11T13:19:17;102724.78;;;8.38;100.00
8398;BME280;4236;54.504;9.588;2023-02-11T13:21:58;102726.22;;;8.42;100.00
8398;BME280;4236;54.504;9.588;2023-02-11T13:24:35;102736.38;;;8.37;100.00
8398;BME280;4236;54.504;9.588;2023-02-11T13:27:11;102732.22;;;8.44;100.00
8398;BME280;4236;54.504;9.588;2023-02-11T13:30:12;102755.72;;;8.39;100.00
8398;BME280;4236;54.504;9.588;2023-02-11T13:33:05;102755.19;;;8.45;100.00
8398;BME280;4236;54.504;9.588;2023-02-11T13:35:46;102764.66;;;8.38;100.00
8398;BME280;4236;54.504;9.588;2023-02-11T13:38:20;102767.22;;;8.49;100.00